Terminal Aerodrome Forecast
Issued by NWS New Orleans/Baton Rouge, LA

Home | Current Version | Previous Version | Text Only | Print | Product List | Glossary On
Versions: 1 2 3 4 5 6 7 8 9 10 11 12 13 14
000
FTUS44 KLIX 190537
TAFNEW
TAF
KNEW 190537Z 1906/2006 14006KT 6SM BR FEW200
     FM190700 14007KT 4SM BR SCT150
     FM191400 15010KT P6SM BKN090
     FM192100 15012KT P6SM SCT080
     FM200300 14010KT P6SM BKN020=

USA.gov is the U.S. government's official web portal to all federal, state and local government web resources and services.